sensor_id;sensor_type;location;lat;lon;timestamp;temperature;humidity
10864;DHT22;5485;37.558;126.950;2023-02-24T00:01:51;3.30;1.00
10864;DHT22;5485;37.558;126.950;2023-02-24T00:04:38;3.20;1.00
10864;DHT22;5485;37.558;126.950;2023-02-24T00:07:10;3.20;1.00
10864;DHT22;5485;37.558;126.950;2023-02-24T00:09:38;3.20;1.00
10864;DHT22;5485;37.558;126.950;2023-02-24T00:12:09;3.10;1.00
10864;DHT22;5485;37.558;126.950;2023-02-24T00:14:40;3.20;1.00
10864;DHT22;5485;37.558;126.950;2023-02-24T00:17:07;3.20;1.00
10864;DHT22;5485;37.558;126.950;2023-02-24T00:19:35;3.30;1.00
10864;DHT22;5485;37.558;126.950;2023-02-24T00:22:05;3.50;1.00
10864;DHT22;5485;37.558;126.950;2023-02-24T00:24:32;3.60;1.00
10864;DHT22;5485;37.558;126.950;2023-02-24T00:27:02;4.00;1.00
10864;DHT22;5485;37.558;126.950;2023-02-24T00:29:33;4.30;1.00
10864;DHT22;5485;37.558;126.950;2023-02-24T00:32:02;4.80;1.00
10864;DHT22;5485;37.558;126.950;2023-02-24T00:34:34;5.30;1.00
10864;DHT22;5485;37.558;126.950;2023-02-24T00:37:02;5.40;1.00
10864;DHT22;5485;37.558;126.950;2023-02-24T00:39:32;5.50;1.00
10864;DHT22;5485;37.558;126.950;2023-02-24T00:42:04;5.10;1.00
10864;DHT22;5485;37.558;126.950;2023-02-24T00:44:40;4.90;1.00
10864;DHT22;5485;37.558;126.950;2023-02-24T00:47:10;4.50;1.00
10864;DHT22;5485;37.558;126.950;2023-02-24T00:49:38;4.40;1.00
10864;DHT22;5485;37.558;126.950;2023-02-24T00:52:14;4.40;1.00
10864;DHT22;5485;37.558;126.950;2023-02-24T00:54:43;4.40;1.00
10864;DHT22;5485;37.558;126.950;2023-02-24T00:57:11;4.40;1.00
10864;DHT22;5485;37.558;126.950;2023-02-24T00:59:39;4.50;1.00
10864;DHT22;5485;37.558;126.950;2023-02-24T01:02:06;5.00;1.00
10864;DHT22;5485;37.558;126.950;2023-02-24T01:04:34;5.60;1.00
10864;DHT22;5485;37.558;126.950;2023-02-24T01:07:02;5.80;1.00
10864;DHT22;5485;37.558;126.950;2023-02-24T01:09:37;6.30;1.00
10864;DHT22;5485;37.558;126.950;2023-02-24T01:12:07;6.50;1.00
10864;DHT22;5485;37.558;126.950;2023-02-24T01:14:52;6.50;1.00
10864;DHT22;5485;37.558;126.950;2023-02-24T01:17:20;6.50;1.00
10864;DHT22;5485;37.558;126.950;2023-02-24T01:19:48;6.70;1.00
10864;DHT22;5485;37.558;126.950;2023-02-24T01:22:16;6.40;1.00
10864;DHT22;5485;37.558;126.950;2023-02-24T01:24:44;6.20;1.00
10864;DHT22;5485;37.558;126.950;2023-02-24T01:27:15;6.40;1.00
10864;DHT22;5485;37.558;126.950;2023-02-24T01:29:46;6.30;1.00
10864;DHT22;5485;37.558;126.950;2023-02-24T01:32:16;7.00;1.00
10864;DHT22;5485;37.558;126.950;2023-02-24T01:34:44;7.20;1.00
10864;DHT22;5485;37.558;126.950;2023-02-24T01:37:11;6.70;1.00
10864;DHT22;5485;37.558;126.950;2023-02-24T01:39:42;7.00;1.00
10864;DHT22;5485;37.558;126.950;2023-02-24T01:42:15;6.80;1.00
10864;DHT22;5485;37.558;126.950;2023-02-24T01:47:11;7.10;1.00
10864;DHT22;5485;37.558;126.950;2023-02-24T01:49:47;7.00;1.00
10864;DHT22;5485;37.558;126.950;2023-02-24T01:52:22;7.00;1.00
10864;DHT22;5485;37.558;126.950;2023-02-24T01:54:56;7.20;1.00
10864;DHT22;5485;37.558;126.950;2023-02-24T01:57:28;7.00;1.00
10864;DHT22;5485;37.558;126.950;2023-02-24T01:59:58;7.70;1.00
10864;DHT22;5485;37.558;126.950;2023-02-24T02:02:40;7.90;1.00
10864;DHT22;5485;37.558;126.950;2023-02-24T02:05:09;7.90;1.00
10864;DHT22;5485;37.558;126.950;2023-02-24T02:07:37;7.90;1.00
10864;DHT22;5485;37.558;126.950;2023-02-24T02:10:07;8.00;1.00
10864;DHT22;5485;37.558;126.950;2023-02-24T02:12:36;8.20;1.00
10864;DHT22;5485;37.558;126.950;2023-02-24T02:15:11;8.00;1.00
10864;DHT22;5485;37.558;126.950;2023-02-24T02:35:00;7.80;1.00
10864;DHT22;5485;37.558;126.950;2023-02-24T02:40:11;7.50;1.00
10864;DHT22;5485;37.558;126.950;2023-02-24T02:42:58;7.30;1.00
10864;DHT22;5485;37.558;126.950;2023-02-24T02:45:56;7.50;1.00
10864;DHT22;5485;37.558;126.950;2023-02-24T02:48:33;7.80;1.00
10864;DHT22;5485;37.558;126.950;2023-02-24T02:51:10;7.60;1.00
10864;DHT22;5485;37.558;126.950;2023-02-24T02:56:27;7.80;1.00
10864;DHT22;5485;37.558;126.950;2023-02-24T02:58:57;7.30;1.00
10864;DHT22;5485;37.558;126.950;2023-02-24T03:01:28;7.10;1.00
10864;DHT22;5485;37.558;126.950;2023-02-24T03:04:01;7.10;1.00
10864;DHT22;5485;37.558;126.950;2023-02-24T03:06:51;7.20;1.00
10864;DHT22;5485;37.558;126.950;2023-02-24T03:09:40;7.20;1.00
10864;DHT22;5485;37.558;126.950;2023-02-24T03:12:15;7.20;1.00
10864;DHT22;5485;37.558;126.950;2023-02-24T03:14:49;7.20;1.00
10864;DHT22;5485;37.558;126.950;2023-02-24T03:17:29;7.10;1.00
10864;DHT22;5485;37.558;126.950;2023-02-24T03:20:25;7.00;1.00
10864;DHT22;5485;37.558;126.950;2023-02-24T03:23:02;7.00;1.00
10864;DHT22;5485;37.558;126.950;2023-02-24T03:25:38;7.10;1.00
10864;DHT22;5485;37.558;126.950;2023-02-24T03:28:26;7.00;1.00
10864;DHT22;5485;37.558;126.950;2023-02-24T03:31:21;6.90;1.00
10864;DHT22;5485;37.558;126.950;2023-02-24T03:34:17;6.80;1.00
10864;DHT22;5485;37.558;126.950;2023-02-24T03:36:49;6.80;1.00
10864;DHT22;5485;37.558;126.950;2023-02-24T03:39:18;6.70;1.00
10864;DHT22;5485;37.558;126.950;2023-02-24T03:42:11;6.60;1.00
10864;DHT22;5485;37.558;126.950;2023-02-24T03:44:39;6.70;1.00
10864;DHT22;5485;37.558;126.950;2023-02-24T03:47:06;6.80;1.00
10864;DHT22;5485;37.558;126.950;2023-02-24T03:49:34;6.80;1.00
10864;DHT22;5485;37.558;126.950;2023-02-24T03:55:23;6.90;1.00
10864;DHT22;5485;37.558;126.950;2023-02-24T04:04:18;6.60;1.00
10864;DHT22;5485;37.558;126.950;2023-02-24T04:09:57;6.80;1.00
10864;DHT22;5485;37.558;126.950;2023-02-24T04:15:50;6.70;1.00
10864;DHT22;5485;37.558;126.950;2023-02-24T04:18:26;6.60;1.00
10864;DHT22;5485;37.558;126.950;2023-02-24T04:20:56;6.70;1.00
10864;DHT22;5485;37.558;126.950;2023-02-24T04:23:29;6.90;1.00
10864;DHT22;5485;37.558;126.950;2023-02-24T04:25:57;6.80;1.00
10864;DHT22;5485;37.558;126.950;2023-02-24T04:28:25;6.90;1.00
10864;DHT22;5485;37.558;126.950;2023-02-24T04:30:58;6.90;1.00
10864;DHT22;5485;37.558;126.950;2023-02-24T04:33:26;6.90;1.00
10864;DHT22;5485;37.558;126.950;2023-02-24T04:35:53;6.80;1.00
10864;DHT22;5485;37.558;126.950;2023-02-24T04:38:20;6.90;1.00
10864;DHT22;5485;37.558;126.950;2023-02-24T04:40:47;6.80;1.00
10864;DHT22;5485;37.558;126.950;2023-02-24T04:43:15;6.70;1.00
10864;DHT22;5485;37.558;126.950;2023-02-24T04:45:43;6.80;1.00
10864;DHT22;5485;37.558;126.950;2023-02-24T04:48:10;7.00;1.00
10864;DHT22;5485;37.558;126.950;2023-02-24T04:50:42;7.10;1.00
10864;DHT22;5485;37.558;126.950;2023-02-24T04:53:15;7.00;1.00
10864;DHT22;5485;37.558;126.950;2023-02-24T04:55:44;7.00;1.00
10864;DHT22;5485;37.558;126.950;2023-02-24T04:58:16;7.00;1.00
10864;DHT22;5485;37.558;126.950;2023-02-24T05:00:50;6.90;1.00
10864;DHT22;5485;37.558;126.950;2023-02-24T05:03:19;7.00;1.00
10864;DHT22;5485;37.558;126.950;2023-02-24T05:05:54;7.10;1.00
10864;DHT22;5485;37.558;126.950;2023-02-24T05:08:23;7.00;1.00
10864;DHT22;5485;37.558;126.950;2023-02-24T05:10:50;7.10;1.00
10864;DHT22;5485;37.558;126.950;2023-02-24T05:13:23;7.20;1.00
10864;DHT22;5485;37.558;126.950;2023-02-24T05:15:58;7.20;1.00
10864;DHT22;5485;37.558;126.950;2023-02-24T05:18:25;7.30;1.00
10864;DHT22;5485;37.558;126.950;2023-02-24T05:20:56;7.30;1.00
10864;DHT22;5485;37.558;126.950;2023-02-24T05:23:44;7.20;1.00
10864;DHT22;5485;37.558;126.950;2023-02-24T05:26:14;7.30;1.00
10864;DHT22;5485;37.558;126.950;2023-02-24T05:28:44;7.30;1.00
10864;DHT22;5485;37.558;126.950;2023-02-24T05:31:16;7.10;1.00
10864;DHT22;5485;37.558;126.950;2023-02-24T05:33:46;7.00;1.00
10864;DHT22;5485;37.558;126.950;2023-02-24T05:36:15;7.00;1.00
10864;DHT22;5485;37.558;126.950;2023-02-24T05:38:44;7.10;1.00
10864;DHT22;5485;37.558;126.950;2023-02-24T05:41:13;6.90;1.00
10864;DHT22;5485;37.558;126.950;2023-02-24T05:43:45;7.00;1.00
10864;DHT22;5485;37.558;126.950;2023-02-24T05:46:21;7.30;1.00
10864;DHT22;5485;37.558;126.950;2023-02-24T05:49:09;7.20;1.00
10864;DHT22;5485;37.558;126.950;2023-02-24T05:51:38;7.30;1.00
10864;DHT22;5485;37.558;126.950;2023-02-24T05:54:11;7.30;1.00
10864;DHT22;5485;37.558;126.950;2023-02-24T05:56:40;7.40;1.00
10864;DHT22;5485;37.558;126.950;2023-02-24T05:59:11;7.40;1.00
10864;DHT22;5485;37.558;126.950;2023-02-24T06:01:40;7.40;1.00
10864;DHT22;5485;37.558;126.950;2023-02-24T06:04:08;7.30;1.00
10864;DHT22;5485;37.558;126.950;2023-02-24T06:06:37;7.30;1.00
10864;DHT22;5485;37.558;126.950;2023-02-24T06:09:13;7.30;1.00
10864;DHT22;5485;37.558;126.950;2023-02-24T06:11:41;7.40;1.00
10864;DHT22;5485;37.558;126.950;2023-02-24T06:14:11;7.40;1.00
10864;DHT22;5485;37.558;126.950;2023-02-24T06:16:40;7.30;1.00
10864;DHT22;5485;37.558;126.950;2023-02-24T06:19:10;7.10;1.00
10864;DHT22;5485;37.558;126.950;2023-02-24T06:21:39;7.10;1.00
10864;DHT22;5485;37.558;126.950;2023-02-24T06:24:13;7.00;1.00
10864;DHT22;5485;37.558;126.950;2023-02-24T06:26:44;6.90;1.00
10864;DHT22;5485;37.558;126.950;2023-02-24T06:29:15;6.80;1.00
10864;DHT22;5485;37.558;126.950;2023-02-24T06:31:43;6.80;1.00
10864;DHT22;5485;37.558;126.950;2023-02-24T06:34:11;6.90;1.00
10864;DHT22;5485;37.558;126.950;2023-02-24T06:36:43;7.00;1.00
10864;DHT22;5485;37.558;126.950;2023-02-24T06:39:12;6.90;1.00
10864;DHT22;5485;37.558;126.950;2023-02-24T06:41:40;6.80;1.00
10864;DHT22;5485;37.558;126.950;2023-02-24T06:44:07;6.80;1.00
10864;DHT22;5485;37.558;126.950;2023-02-24T06:46:35;6.70;1.00
10864;DHT22;5485;37.558;126.950;2023-02-24T06:49:02;6.70;1.00
10864;DHT22;5485;37.558;126.950;2023-02-24T06:51:29;6.60;1.00
10864;DHT22;5485;37.558;126.950;2023-02-24T06:53:56;6.60;1.00
10864;DHT22;5485;37.558;126.950;2023-02-24T06:56:25;6.70;1.00
10864;DHT22;5485;37.558;126.950;2023-02-24T06:58:54;6.70;1.00
10864;DHT22;5485;37.558;126.950;2023-02-24T07:01:26;6.70;1.00
10864;DHT22;5485;37.558;126.950;2023-02-24T07:03:56;6.80;1.00
10864;DHT22;5485;37.558;126.950;2023-02-24T07:06:35;6.80;1.00
10864;DHT22;5485;37.558;126.950;2023-02-24T07:09:06;6.70;1.00
10864;DHT22;5485;37.558;126.950;2023-02-24T07:11:35;6.70;1.00
10864;DHT22;5485;37.558;126.950;2023-02-24T07:14:07;6.60;1.00
10864;DHT22;5485;37.558;126.950;2023-02-24T07:16:34;6.70;1.00
10864;DHT22;5485;37.558;126.950;2023-02-24T07:19:04;6.60;1.00
10864;DHT22;5485;37.558;126.950;2023-02-24T07:21:37;6.60;1.00
10864;DHT22;5485;37.558;126.950;2023-02-24T07:24:10;6.70;1.00
10864;DHT22;5485;37.558;126.950;2023-02-24T07:26:42;6.60;1.00
10864;DHT22;5485;37.558;126.950;2023-02-24T07:29:16;6.70;1.00
10864;DHT22;5485;37.558;126.950;2023-02-24T07:31:43;6.70;1.00
10864;DHT22;5485;37.558;126.950;2023-02-24T07:34:10;6.70;1.00
10864;DHT22;5485;37.558;126.950;2023-02-24T07:36:43;6.60;1.00
10864;DHT22;5485;37.558;126.950;2023-02-24T07:39:16;6.50;1.00
10864;DHT22;5485;37.558;126.950;2023-02-24T07:41:44;6.60;1.00
10864;DHT22;5485;37.558;126.950;2023-02-24T07:44:16;6.50;1.00
10864;DHT22;5485;37.558;126.950;2023-02-24T07:46:44;6.50;1.00
10864;DHT22;5485;37.558;126.950;2023-02-24T07:49:13;6.60;1.00
10864;DHT22;5485;37.558;126.950;2023-02-24T07:51:40;6.50;1.00
10864;DHT22;5485;37.558;126.950;2023-02-24T07:54:09;6.40;1.00
10864;DHT22;5485;37.558;126.950;2023-02-24T07:56:37;6.30;1.00
10864;DHT22;5485;37.558;126.950;2023-02-24T07:59:12;6.20;1.00
10864;DHT22;5485;37.558;126.950;2023-02-24T08:01:44;6.20;1.00
10864;DHT22;5485;37.558;126.950;2023-02-24T08:04:23;6.10;1.00
10864;DHT22;5485;37.558;126.950;2023-02-24T08:06:51;6.10;1.00
10864;DHT22;5485;37.558;126.950;2023-02-24T08:09:24;6.10;1.00
10864;DHT22;5485;37.558;126.950;2023-02-24T08:12:18;6.10;1.00
10864;DHT22;5485;37.558;126.950;2023-02-24T08:14:48;6.10;1.00
10864;DHT22;5485;37.558;126.950;2023-02-24T08:17:23;6.10;1.00
10864;DHT22;5485;37.558;126.950;2023-02-24T08:19:52;6.00;1.00
10864;DHT22;5485;37.558;126.950;2023-02-24T08:22:43;6.10;1.00
10864;DHT22;5485;37.558;126.950;2023-02-24T08:25:19;6.00;1.00
10864;DHT22;5485;37.558;126.950;2023-02-24T08:27:52;6.00;1.00
10864;DHT22;5485;37.558;126.950;2023-02-24T08:30:25;5.90;1.00
10864;DHT22;5485;37.558;126.950;2023-02-24T08:32:56;5.90;1.00
10864;DHT22;5485;37.558;126.950;2023-02-24T08:35:26;5.80;1.00
10864;DHT22;5485;37.558;126.950;2023-02-24T08:40:38;5.70;1.00
10864;DHT22;5485;37.558;126.950;2023-02-24T08:43:28;5.50;1.00
10864;DHT22;5485;37.558;126.950;2023-02-24T08:48:25;5.40;1.00
10864;DHT22;5485;37.558;126.950;2023-02-24T08:51:01;5.30;1.00
10864;DHT22;5485;37.558;126.950;2023-02-24T08:53:29;5.20;1.00
10864;DHT22;5485;37.558;126.950;2023-02-24T08:55:58;5.20;1.00
10864;DHT22;5485;37.558;126.950;2023-02-24T08:58:26;5.20;1.00
10864;DHT22;5485;37.558;126.950;2023-02-24T09:00:57;5.20;1.00
10864;DHT22;5485;37.558;126.950;2023-02-24T09:03:27;5.20;1.00
10864;DHT22;5485;37.558;126.950;2023-02-24T09:06:06;5.10;1.00
10864;DHT22;5485;37.558;126.950;2023-02-24T09:08:37;5.00;1.00
10864;DHT22;5485;37.558;126.950;2023-02-24T09:11:06;5.00;1.00
10864;DHT22;5485;37.558;126.950;2023-02-24T09:13:37;4.90;1.00
10864;DHT22;5485;37.558;126.950;2023-02-24T09:16:09;4.80;1.00
10864;DHT22;5485;37.558;126.950;2023-02-24T09:18:42;4.70;1.00
10864;DHT22;5485;37.558;126.950;2023-02-24T09:21:13;4.60;1.00
10864;DHT22;5485;37.558;126.950;2023-02-24T09:23:59;4.60;1.00
10864;DHT22;5485;37.558;126.950;2023-02-24T09:26:31;4.50;1.00
10864;DHT22;5485;37.558;126.950;2023-02-24T09:29:12;4.50;1.00
10864;DHT22;5485;37.558;126.950;2023-02-24T09:32:00;4.40;1.00
10864;DHT22;5485;37.558;126.950;2023-02-24T09:34:37;4.40;1.00
10864;DHT22;5485;37.558;126.950;2023-02-24T09:37:13;4.30;1.00
10864;DHT22;5485;37.558;126.950;2023-02-24T09:40:00;4.20;1.00
10864;DHT22;5485;37.558;126.950;2023-02-24T09:42:42;4.20;1.00
10864;DHT22;5485;37.558;126.950;2023-02-24T09:45:22;4.20;1.00
10864;DHT22;5485;37.558;126.950;2023-02-24T09:48:04;4.10;1.00
10864;DHT22;5485;37.558;126.950;2023-02-24T09:50:38;4.00;1.00
10864;DHT22;5485;37.558;126.950;2023-02-24T09:53:23;4.00;1.00
10864;DHT22;5485;37.558;126.950;2023-02-24T09:56:08;3.90;1.00
10864;DHT22;5485;37.558;126.950;2023-02-24T09:58:48;3.80;1.00
10864;DHT22;5485;37.558;126.950;2023-02-24T10:09:38;3.60;1.00
10864;DHT22;5485;37.558;126.950;2023-02-24T10:14:55;3.50;1.00
10864;DHT22;5485;37.558;126.950;2023-02-24T10:17:49;3.50;1.00
10864;DHT22;5485;37.558;126.950;2023-02-24T10:20:22;3.40;1.00
10864;DHT22;5485;37.558;126.950;2023-02-24T10:23:21;3.40;1.00
10864;DHT22;5485;37.558;126.950;2023-02-24T10:26:06;3.30;1.00
10864;DHT22;5485;37.558;126.950;2023-02-24T10:28:52;3.30;1.00
10864;DHT22;5485;37.558;126.950;2023-02-24T10:31:46;3.20;1.00
10864;DHT22;5485;37.558;126.950;2023-02-24T10:34:15;3.10;1.00
10864;DHT22;5485;37.558;126.950;2023-02-24T10:36:51;3.10;1.00
10864;DHT22;5485;37.558;126.950;2023-02-24T10:39:21;3.00;1.00
10864;DHT22;5485;37.558;126.950;2023-02-24T10:41:57;3.00;1.00
10864;DHT22;5485;37.558;126.950;2023-02-24T10:44:48;2.90;1.00
10864;DHT22;5485;37.558;126.950;2023-02-24T10:47:29;2.90;1.00
10864;DHT22;5485;37.558;126.950;2023-02-24T10:50:00;2.80;1.00
10864;DHT22;5485;37.558;126.950;2023-02-24T10:52:33;2.80;1.00
10864;DHT22;5485;37.558;126.950;2023-02-24T10:55:39;2.70;1.00
10864;DHT22;5485;37.558;126.950;2023-02-24T10:58:33;2.70;1.00
10864;DHT22;5485;37.558;126.950;2023-02-24T11:01:38;2.60;1.00
10864;DHT22;5485;37.558;126.950;2023-02-24T11:04:44;2.60;1.00
10864;DHT22;5485;37.558;126.950;2023-02-24T11:07:31;2.50;1.00
10864;DHT22;5485;37.558;126.950;2023-02-24T11:10:23;2.50;1.00
10864;DHT22;5485;37.558;126.950;2023-02-24T11:13:14;2.40;1.00
10864;DHT22;5485;37.558;126.950;2023-02-24T11:16:00;2.40;1.00
10864;DHT22;5485;37.558;126.950;2023-02-24T11:18:47;2.30;1.00
10864;DHT22;5485;37.558;126.950;2023-02-24T11:21:18;2.30;1.00
10864;DHT22;5485;37.558;126.950;2023-02-24T11:23:57;2.30;1.00
10864;DHT22;5485;37.558;126.950;2023-02-24T11:26:36;2.20;1.00
10864;DHT22;5485;37.558;126.950;2023-02-24T11:38:25;2.10;1.00
10864;DHT22;5485;37.558;126.950;2023-02-24T11:43:44;2.00;1.00
10864;DHT22;5485;37.558;126.950;2023-02-24T11:46:16;2.00;1.00
10864;DHT22;5485;37.558;126.950;2023-02-24T11:48:51;1.90;1.00
10864;DHT22;5485;37.558;126.950;2023-02-24T11:51:29;1.90;1.00
10864;DHT22;5485;37.558;126.950;2023-02-24T11:54:07;1.90;1.00
10864;DHT22;5485;37.558;126.950;2023-02-24T11:56:42;1.80;1.00
10864;DHT22;5485;37.558;126.950;2023-02-24T12:02:03;1.80;1.00
10864;DHT22;5485;37.558;126.950;2023-02-24T12:04:52;1.70;1.00
10864;DHT22;5485;37.558;126.950;2023-02-24T12:07:21;1.70;1.00
10864;DHT22;5485;37.558;126.950;2023-02-24T12:10:04;1.70;1.00
10864;DHT22;5485;37.558;126.950;2023-02-24T12:13:02;1.70;1.00
10864;DHT22;5485;37.558;126.950;2023-02-24T12:15:39;1.60;1.00
10864;DHT22;5485;37.558;126.950;2023-02-24T12:23:46;1.60;1.00
10864;DHT22;5485;37.558;126.950;2023-02-24T12:53:33;1.20;1.00
10864;DHT22;5485;37.558;126.950;2023-02-24T12:56:14;1.10;1.00
10864;DHT22;5485;37.558;126.950;2023-02-24T12:58:50;1.10;1.00
10864;DHT22;5485;37.558;126.950;2023-02-24T13:12:27;0.90;1.00
10864;DHT22;5485;37.558;126.950;2023-02-24T13:14:59;0.90;1.00
10864;DHT22;5485;37.558;126.950;2023-02-24T13:17:26;0.90;1.00
10864;DHT22;5485;37.558;126.950;2023-02-24T13:20:07;0.80;1.00
10864;DHT22;5485;37.558;126.950;2023-02-24T13:22:40;0.90;1.00
10864;DHT22;5485;37.558;126.950;2023-02-24T13:27:40;0.80;1.00
10864;DHT22;5485;37.558;126.950;2023-02-24T13:32:45;0.80;1.00
10864;DHT22;5485;37.558;126.950;2023-02-24T13:37:44;0.70;1.00
10864;DHT22;5485;37.558;126.950;2023-02-24T13:59:13;0.60;1.00
10864;DHT22;5485;37.558;126.950;2023-02-24T14:02:02;0.60;1.00
10864;DHT22;5485;37.558;126.950;2023-02-24T14:04:43;0.60;1.00
10864;DHT22;5485;37.558;126.950;2023-02-24T14:07:15;0.60;1.00
10864;DHT22;5485;37.558;126.950;2023-02-24T14:09:46;0.60;1.00
10864;DHT22;5485;37.558;126.950;2023-02-24T14:12:19;0.60;1.00
10864;DHT22;5485;37.558;126.950;2023-02-24T14:14:49;0.50;1.00
10864;DHT22;5485;37.558;126.950;2023-02-24T14:17:34;0.50;1.00
10864;DHT22;5485;37.558;126.950;2023-02-24T14:20:20;0.50;1.00
10864;DHT22;5485;37.558;126.950;2023-02-24T14:22:55;0.50;1.00
10864;DHT22;5485;37.558;126.950;2023-02-24T14:25:26;0.50;1.00
10864;DHT22;5485;37.558;126.950;2023-02-24T14:27:56;0.50;1.00
10864;DHT22;5485;37.558;126.950;2023-02-24T14:30:35;0.50;1.00
10864;DHT22;5485;37.558;126.950;2023-02-24T14:33:04;0.50;1.00
10864;DHT22;5485;37.558;126.950;2023-02-24T14:35:40;0.40;1.00
10864;DHT22;5485;37.558;126.950;2023-02-24T14:38:28;0.40;1.00
10864;DHT22;5485;37.558;126.950;2023-02-24T14:40:55;0.40;1.00
10864;DHT22;5485;37.558;126.950;2023-02-24T14:43:22;0.40;1.00
10864;DHT22;5485;37.558;126.950;2023-02-24T14:45:51;0.30;1.00
10864;DHT22;5485;37.558;126.950;2023-02-24T14:48:27;0.40;1.00
10864;DHT22;5485;37.558;126.950;2023-02-24T14:51:28;0.30;1.00
10864;DHT22;5485;37.558;126.950;2023-02-24T14:54:02;0.30;1.00
10864;DHT22;5485;37.558;126.950;2023-02-24T14:56:33;0.30;1.00
10864;DHT22;5485;37.558;126.950;2023-02-24T14:59:34;0.20;1.00
10864;DHT22;5485;37.558;126.950;2023-02-24T15:02:06;0.20;1.00
10864;DHT22;5485;37.558;126.950;2023-02-24T15:04:40;0.20;1.00
10864;DHT22;5485;37.558;126.950;2023-02-24T15:07:32;0.20;1.00
10864;DHT22;5485;37.558;126.950;2023-02-24T15:10:01;0.10;1.00
10864;DHT22;5485;37.558;126.950;2023-02-24T15:12:29;0.10;1.00
10864;DHT22;5485;37.558;126.950;2023-02-24T15:15:06;0.20;1.00
10864;DHT22;5485;37.558;126.950;2023-02-24T15:17:39;0.20;1.00
10864;DHT22;5485;37.558;126.950;2023-02-24T15:20:32;0.20;1.00
10864;DHT22;5485;37.558;126.950;2023-02-24T15:23:00;0.10;1.00
10864;DHT22;5485;37.558;126.950;2023-02-24T15:25:44;0.10;1.00
10864;DHT22;5485;37.558;126.950;2023-02-24T15:28:32;0.00;1.00
10864;DHT22;5485;37.558;126.950;2023-02-24T15:31:16;0.00;1.00
10864;DHT22;5485;37.558;126.950;2023-02-24T15:33:52;0.00;1.00
10864;DHT22;5485;37.558;126.950;2023-02-24T15:36:23;0.00;1.00
10864;DHT22;5485;37.558;126.950;2023-02-24T15:39:00;-0.10;1.00
10864;DHT22;5485;37.558;126.950;2023-02-24T15:41:39;-0.10;1.00
10864;DHT22;5485;37.558;126.950;2023-02-24T15:44:19;0.00;1.00
10864;DHT22;5485;37.558;126.950;2023-02-24T15:46:47;0.00;1.00
10864;DHT22;5485;37.558;126.950;2023-02-24T15:49:14;0.00;1.00
10864;DHT22;5485;37.558;126.950;2023-02-24T15:51:43;-0.10;1.00
10864;DHT22;5485;37.558;126.950;2023-02-24T15:54:30;-0.10;1.00
10864;DHT22;5485;37.558;126.950;2023-02-24T15:57:01;-0.10;1.00
10864;DHT22;5485;37.558;126.950;2023-02-24T15:59:28;-0.10;1.00
10864;DHT22;5485;37.558;126.950;2023-02-24T16:01:55;-0.10;1.00
10864;DHT22;5485;37.558;126.950;2023-02-24T16:04:23;0.00;1.00
10864;DHT22;5485;37.558;126.950;2023-02-24T16:06:53;-0.10;1.00
10864;DHT22;5485;37.558;126.950;2023-02-24T16:09:41;-0.10;1.00
10864;DHT22;5485;37.558;126.950;2023-02-24T16:12:20;-0.20;1.00
10864;DHT22;5485;37.558;126.950;2023-02-24T16:14:48;-0.20;1.00
10864;DHT22;5485;37.558;126.950;2023-02-24T16:17:39;-0.30;1.00
10864;DHT22;5485;37.558;126.950;2023-02-24T16:20:40;-0.30;1.00
10864;DHT22;5485;37.558;126.950;2023-02-24T16:23:05;-0.20;1.00
10864;DHT22;5485;37.558;126.950;2023-02-24T16:25:42;-0.20;1.00
10864;DHT22;5485;37.558;126.950;2023-02-24T16:28:16;-0.20;1.00
10864;DHT22;5485;37.558;126.950;2023-02-24T16:30:43;-0.20;1.00
10864;DHT22;5485;37.558;126.950;2023-02-24T16:33:15;-0.20;1.00
10864;DHT22;5485;37.558;126.950;2023-02-24T16:35:43;-0.20;1.00
10864;DHT22;5485;37.558;126.950;2023-02-24T16:38:12;-0.20;1.00
10864;DHT22;5485;37.558;126.950;2023-02-24T16:40:42;-0.20;1.00
10864;DHT22;5485;37.558;126.950;2023-02-24T16:43:10;-0.20;1.00
10864;DHT22;5485;37.558;126.950;2023-02-24T16:45:38;-0.20;1.00
10864;DHT22;5485;37.558;126.950;2023-02-24T16:48:13;-0.20;1.00
10864;DHT22;5485;37.558;126.950;2023-02-24T16:50:42;-0.20;1.00
10864;DHT22;5485;37.558;126.950;2023-02-24T16:53:15;-0.20;1.00
10864;DHT22;5485;37.558;126.950;2023-02-24T16:55:43;-0.30;1.00
10864;DHT22;5485;37.558;126.950;2023-02-24T16:58:11;-0.30;1.00
10864;DHT22;5485;37.558;126.950;2023-02-24T17:00:39;-0.30;1.00
10864;DHT22;5485;37.558;126.950;2023-02-24T17:03:57;-0.40;1.00
10864;DHT22;5485;37.558;126.950;2023-02-24T17:06:04;-0.40;1.00
10864;DHT22;5485;37.558;126.950;2023-02-24T17:08:31;-0.50;1.00
10864;DHT22;5485;37.558;126.950;2023-02-24T17:10:59;-0.50;1.00
10864;DHT22;5485;37.558;126.950;2023-02-24T17:13:26;-0.50;1.00
10864;DHT22;5485;37.558;126.950;2023-02-24T17:15:53;-0.40;1.00
10864;DHT22;5485;37.558;126.950;2023-02-24T17:18:23;-0.40;1.00
10864;DHT22;5485;37.558;126.950;2023-02-24T17:20:50;-0.40;1.00
10864;DHT22;5485;37.558;126.950;2023-02-24T17:23:17;-0.50;1.00
10864;DHT22;5485;37.558;126.950;2023-02-24T17:25:46;-0.40;1.00
10864;DHT22;5485;37.558;126.950;2023-02-24T17:28:14;-0.40;1.00
10864;DHT22;5485;37.558;126.950;2023-02-24T17:30:42;-0.40;1.00
10864;DHT22;5485;37.558;126.950;2023-02-24T17:33:08;-0.50;1.00
10864;DHT22;5485;37.558;126.950;2023-02-24T17:35:36;-0.50;1.00
10864;DHT22;5485;37.558;126.950;2023-02-24T17:38:03;-0.50;1.00
10864;DHT22;5485;37.558;126.950;2023-02-24T17:40:29;-0.50;1.00
10864;DHT22;5485;37.558;126.950;2023-02-24T17:42:56;-0.50;1.00
10864;DHT22;5485;37.558;126.950;2023-02-24T17:45:23;-0.50;1.00
10864;DHT22;5485;37.558;126.950;2023-02-24T17:47:50;-0.50;1.00
10864;DHT22;5485;37.558;126.950;2023-02-24T17:50:19;-0.50;1.00
10864;DHT22;5485;37.558;126.950;2023-02-24T17:52:45;-0.50;1.00
10864;DHT22;5485;37.558;126.950;2023-02-24T17:55:13;-0.50;1.00
10864;DHT22;5485;37.558;126.950;2023-02-24T17:57:39;-0.50;1.00
10864;DHT22;5485;37.558;126.950;2023-02-24T18:00:09;-0.50;1.00
10864;DHT22;5485;37.558;126.950;2023-02-24T18:02:38;-0.50;1.00
10864;DHT22;5485;37.558;126.950;2023-02-24T18:05:05;-0.60;1.00
10864;DHT22;5485;37.558;126.950;2023-02-24T18:07:34;-0.60;1.00
10864;DHT22;5485;37.558;126.950;2023-02-24T18:10:01;-0.60;1.00
10864;DHT22;5485;37.558;126.950;2023-02-24T18:12:28;-0.60;1.00
10864;DHT22;5485;37.558;126.950;2023-02-24T18:14:55;-0.60;1.00
10864;DHT22;5485;37.558;126.950;2023-02-24T18:17:26;-0.70;1.00
10864;DHT22;5485;37.558;126.950;2023-02-24T18:19:54;-0.70;1.00
10864;DHT22;5485;37.558;126.950;2023-02-24T18:22:21;-0.70;1.00
10864;DHT22;5485;37.558;126.950;2023-02-24T18:24:48;-0.70;1.00
10864;DHT22;5485;37.558;126.950;2023-02-24T18:27:15;-0.70;1.00
10864;DHT22;5485;37.558;126.950;2023-02-24T18:29:42;-0.80;1.00
10864;DHT22;5485;37.558;126.950;2023-02-24T18:32:09;-0.80;1.00
10864;DHT22;5485;37.558;126.950;2023-02-24T18:34:36;-0.80;1.00
10864;DHT22;5485;37.558;126.950;2023-02-24T18:37:02;-0.80;1.00
10864;DHT22;5485;37.558;126.950;2023-02-24T18:39:29;-0.80;1.00
10864;DHT22;5485;37.558;126.950;2023-02-24T18:41:56;-0.80;1.00
10864;DHT22;5485;37.558;126.950;2023-02-24T18:44:23;-0.80;1.00
10864;DHT22;5485;37.558;126.950;2023-02-24T18:46:51;-0.80;1.00